Eckelson, North Dakota
Current Conditions -  °F | °C
As of 3:15 AM on Friday 19 Dec 2014 (Local Time) from KBAC Reporting Station
Haze Haze  
Wind Chill: 16°   Ceiling: 200
Heat Index: 25°   Visibility: 2mi
Dew Point: 25°   Wind: 8mph
Humidity: 100%   Direction: 180°S
Pressure: 30.06"   Gusts: NA
Location:  46.94°N, 98.33°W
Report Text: KBAC 190915Z AUTO 18007KT 2SM BR OVC002 M04/M04 A3006 RMK AO2
Loading
Personal Weather Stations






























Interactive Weather Map New forecast layout! Learn more

10-Day Weather Forecast

Advertisements
Track Severe Weather on mobile